Time,TemperatureF,DewpointF,PressureIn,WindDirection,WindDirectionDegrees,WindSpeedMPH,WindSpeedGustMPH,Humidity,HourlyPrecipIn,Conditions,Clouds,dailyrainin,SoftwareType,DateUTC
2013-04-06 00:00:00,43.1,28.0,30.10,NW,326,2.0,2.0,55,0.00,,---,0.00,VWS V14.01,2013-04-06 04:00:00,
2013-04-06 00:05:00,43.0,28.0,30.10,NW,318,3.0,4.0,55,0.00,,---,0.00,VWS V14.01,2013-04-06 04:05:00,
2013-04-06 00:10:00,43.0,28.4,30.10,NW,323,1.0,4.0,56,0.00,,---,0.00,VWS V14.01,2013-04-06 04:10:00,
2013-04-06 00:15:00,42.8,28.2,30.10,NNW,336,2.0,4.0,56,0.00,,---,0.00,VWS V14.01,2013-04-06 04:15:00,
2013-04-06 00:20:00,42.6,28.0,30.10,NW,309,2.0,5.0,56,0.00,,---,0.00,VWS V14.01,2013-04-06 04:20:00,
2013-04-06 00:25:00,42.5,28.4,30.10,NNW,342,2.0,7.0,57,0.00,,---,0.00,VWS V14.01,2013-04-06 04:25:00,
2013-04-06 00:30:00,42.5,28.4,30.11,NW,304,1.0,3.0,57,0.00,,---,0.00,VWS V14.01,2013-04-06 04:30:00,
2013-04-06 00:35:00,42.2,28.1,30.11,NW,316,0.0,4.0,57,0.00,,---,0.00,VWS V14.01,2013-04-06 04:35:00,
2013-04-06 00:40:00,41.7,28.0,30.11,WNW,302,0.0,4.0,58,0.00,,---,0.00,VWS V14.01,2013-04-06 04:40:00,
2013-04-06 00:45:00,41.5,28.3,30.11,NW,311,0.0,4.0,59,0.00,,---,0.00,VWS V14.01,2013-04-06 04:45:00,
2013-04-06 00:50:00,41.3,28.1,30.11,WNW,300,1.0,4.0,59,0.00,,---,0.00,VWS V14.01,2013-04-06 04:50:00,
2013-04-06 00:55:00,41.2,28.4,30.12,NW,323,2.0,5.0,60,0.00,,---,0.00,VWS V14.01,2013-04-06 04:55:00,
2013-04-06 01:00:00,40.9,28.5,30.12,NW,326,1.0,3.0,61,0.00,,---,0.00,VWS V14.01,2013-04-06 05:00:00,
2013-04-06 01:06:00,40.9,28.5,30.12,NW,309,2.0,6.0,61,0.00,,---,0.00,VWS V14.01,2013-04-06 05:06:00,
2013-04-06 01:11:00,40.7,28.7,30.12,North,1,1.0,6.0,62,0.00,,---,0.00,VWS V14.01,2013-04-06 05:11:00,
2013-04-06 01:16:00,40.5,28.9,30.12,NW,319,2.0,6.0,63,0.00,,---,0.00,VWS V14.01,2013-04-06 05:16:00,
2013-04-06 01:21:00,40.5,28.9,30.12,NW,320,3.0,6.0,63,0.00,,---,0.00,VWS V14.01,2013-04-06 05:21:00,
2013-04-06 01:26:00,40.3,28.7,30.12,NW,314,0.0,6.0,63,0.00,,---,0.00,VWS V14.01,2013-04-06 05:26:00,
2013-04-06 01:31:00,40.1,28.9,30.12,NW,322,1.0,4.0,64,0.00,,---,0.00,VWS V14.01,2013-04-06 05:31:00,
2013-04-06 01:36:00,40.0,28.8,30.12,NNW,328,1.0,4.0,64,0.00,,---,0.00,VWS V14.01,2013-04-06 05:36:00,
2013-04-06 01:41:00,39.8,28.6,30.12,NNW,338,4.0,4.0,64,0.00,,---,0.00,VWS V14.01,2013-04-06 05:41:00,
2013-04-06 01:46:00,39.7,28.9,30.13,NNW,345,2.0,5.0,65,0.00,,---,0.00,VWS V14.01,2013-04-06 05:46:00,
2013-04-06 01:51:00,39.6,28.8,30.13,NNW,329,1.0,5.0,65,0.00,,---,0.00,VWS V14.01,2013-04-06 05:51:00,
2013-04-06 01:56:00,39.6,28.8,30.13,NW,309,1.0,5.0,65,0.00,,---,0.00,VWS V14.01,2013-04-06 05:56:00,
2013-04-06 02:01:00,39.4,28.6,30.12,NNW,346,1.0,2.0,65,0.00,,---,0.00,VWS V14.01,2013-04-06 06:01:00,
2013-04-06 02:06:00,39.2,28.4,30.13,NNW,328,3.0,5.0,65,0.00,,---,0.00,VWS V14.01,2013-04-06 06:06:00,
2013-04-06 02:11:00,39.1,28.3,30.13,NW,310,1.0,5.0,65,0.00,,---,0.00,VWS V14.01,2013-04-06 06:11:00,
2013-04-06 02:16:00,39.0,28.2,30.13,North,352,0.0,5.0,65,0.00,,---,0.00,VWS V14.01,2013-04-06 06:16:00,
2013-04-06 02:21:00,38.6,28.2,30.13,NNW,347,0.0,5.0,66,0.00,,---,0.00,VWS V14.01,2013-04-06 06:21:00,
2013-04-06 02:27:00,38.2,28.2,30.12,NW,314,0.0,5.0,67,0.00,,---,0.00,VWS V14.01,2013-04-06 06:27:00,
2013-04-06 02:32:00,37.9,27.9,30.12,NW,314,0.0,0.0,67,0.00,,---,0.00,VWS V14.01,2013-04-06 06:32:00,
2013-04-06 02:37:00,37.6,27.6,30.12,NW,314,0.0,1.0,67,0.00,,---,0.00,VWS V14.01,2013-04-06 06:37:00,
2013-04-06 02:42:00,37.7,27.8,30.12,NW,314,1.0,1.0,67,0.00,,---,0.00,VWS V14.01,2013-04-06 06:42:00,
2013-04-06 02:47:00,37.7,27.8,30.12,NW,314,0.0,1.0,67,0.00,,---,0.00,VWS V14.01,2013-04-06 06:47:00,
2013-04-06 02:52:00,37.5,27.5,30.12,NW,314,0.0,1.0,67,0.00,,---,0.00,VWS V14.01,2013-04-06 06:52:00,
2013-04-06 02:57:00,37.3,27.4,30.12,NW,314,1.0,1.0,67,0.00,,---,0.00,VWS V14.01,2013-04-06 06:57:00,
2013-04-06 03:02:00,37.3,27.4,30.12,NNW,336,0.0,1.0,67,0.00,,---,0.00,VWS V14.01,2013-04-06 07:02:00,
2013-04-06 03:07:00,37.4,27.5,30.12,NW,322,1.0,2.0,67,0.00,,---,0.00,VWS V14.01,2013-04-06 07:07:00,
2013-04-06 03:12:00,37.3,27.4,30.12,NW,324,0.0,2.0,67,0.00,,---,0.00,VWS V14.01,2013-04-06 07:12:00,
2013-04-06 03:17:00,36.9,27.0,30.12,NW,325,1.0,2.0,67,0.00,,---,0.00,VWS V14.01,2013-04-06 07:17:00,
2013-04-06 03:22:00,36.7,27.1,30.12,NW,325,0.0,2.0,68,0.00,,---,0.00,VWS V14.01,2013-04-06 07:22:00,
2013-04-06 03:27:00,36.5,27.0,30.12,NW,319,0.0,2.0,68,0.00,,---,0.00,VWS V14.01,2013-04-06 07:27:00,
2013-04-06 03:32:00,36.2,26.7,30.12,NW,319,0.0,1.0,68,0.00,,---,0.00,VWS V14.01,2013-04-06 07:32:00,
2013-04-06 03:37:00,36.2,26.7,30.12,WNW,300,0.0,2.0,68,0.00,,---,0.00,VWS V14.01,2013-04-06 07:37:00,
2013-04-06 03:42:00,35.6,26.8,30.12,WNW,299,0.0,2.0,70,0.00,,---,0.00,VWS V14.01,2013-04-06 07:42:00,
2013-04-06 03:47:00,35.2,26.8,30.12,NW,308,0.0,2.0,71,0.00,,---,0.00,VWS V14.01,2013-04-06 07:47:00,
2013-04-06 03:52:00,35.0,26.6,30.12,West,264,0.0,2.0,71,0.00,,---,0.00,VWS V14.01,2013-04-06 07:52:00,
2013-04-06 03:57:00,34.9,26.1,30.12,NW,309,0.0,2.0,70,0.00,,---,0.00,VWS V14.01,2013-04-06 07:57:00,
2013-04-06 04:03:00,35.1,26.0,30.12,NW,309,0.0,0.0,69,0.00,,---,0.00,VWS V14.01,2013-04-06 08:03:00,
2013-04-06 04:08:00,33.9,26.8,30.13,NW,309,0.0,1.0,75,0.00,,---,0.00,VWS V14.01,2013-04-06 08:08:00,
2013-04-06 04:13:00,32.2,26.4,30.13,NW,309,0.0,1.0,79,0.00,,---,0.00,VWS V14.01,2013-04-06 08:13:00,
2013-04-06 04:18:00,31.4,26.0,30.13,NW,309,0.0,1.0,80,0.00,,---,0.00,VWS V14.01,2013-04-06 08:18:00,
2013-04-06 04:23:00,31.1,25.7,30.13,NW,309,0.0,1.0,80,0.00,,---,0.00,VWS V14.01,2013-04-06 08:23:00,
2013-04-06 04:28:00,30.9,25.5,30.13,NW,309,0.0,1.0,80,0.00,,---,0.00,VWS V14.01,2013-04-06 08:28:00,
2013-04-06 04:33:00,30.8,25.7,30.13,NW,309,0.0,0.0,81,0.00,,---,0.00,VWS V14.01,2013-04-06 08:33:00,
2013-04-06 04:38:00,30.6,25.8,30.13,NW,309,0.0,0.0,82,0.00,,---,0.00,VWS V14.01,2013-04-06 08:38:00,
2013-04-06 04:43:00,30.4,25.9,30.14,NW,309,0.0,0.0,83,0.00,,---,0.00,VWS V14.01,2013-04-06 08:43:00,
2013-04-06 04:48:00,30.1,25.3,30.14,NW,309,0.0,0.0,82,0.00,,---,0.00,VWS V14.01,2013-04-06 08:48:00,
2013-04-06 04:53:00,29.9,24.5,30.14,NW,309,0.0,0.0,80,0.00,,---,0.00,VWS V14.01,2013-04-06 08:53:00,
2013-04-06 04:58:00,30.1,25.0,30.14,NW,309,0.0,0.0,81,0.00,,---,0.00,VWS V14.01,2013-04-06 08:58:00,
2013-04-06 05:03:00,30.3,25.2,30.14,NW,309,0.0,0.0,81,0.00,,---,0.00,VWS V14.01,2013-04-06 09:03:00,
2013-04-06 05:08:00,30.4,24.7,30.14,NW,309,0.0,0.0,79,0.00,,---,0.00,VWS V14.01,2013-04-06 09:08:00,
2013-04-06 05:13:00,30.5,24.8,30.14,NW,309,0.0,0.0,79,0.00,,---,0.00,VWS V14.01,2013-04-06 09:13:00,
2013-04-06 05:18:00,31.2,24.8,30.14,NW,309,0.0,0.0,77,0.00,,---,0.00,VWS V14.01,2013-04-06 09:18:00,
2013-04-06 05:23:00,31.2,24.2,30.14,NW,309,0.0,0.0,75,0.00,,---,0.00,VWS V14.01,2013-04-06 09:23:00,
2013-04-06 05:28:00,31.0,24.0,30.14,NW,309,0.0,0.0,75,0.00,,---,0.00,VWS V14.01,2013-04-06 09:28:00,
2013-04-06 05:33:00,30.8,24.1,30.14,NW,309,0.0,0.0,76,0.00,,---,0.00,VWS V14.01,2013-04-06 09:33:00,
2013-04-06 05:38:00,30.5,24.2,30.14,NW,309,0.0,0.0,77,0.00,,---,0.00,VWS V14.01,2013-04-06 09:38:00,
2013-04-06 05:43:00,30.2,24.5,30.14,NW,309,0.0,0.0,79,0.00,,---,0.00,VWS V14.01,2013-04-06 09:43:00,
2013-04-06 05:49:00,30.0,24.6,30.14,NW,309,0.0,0.0,80,0.00,,---,0.00,VWS V14.01,2013-04-06 09:49:00,
2013-04-06 05:54:00,29.7,24.6,30.15,NW,309,0.0,0.0,81,0.00,,---,0.00,VWS V14.01,2013-04-06 09:54:00,
2013-04-06 05:59:00,29.5,25.0,30.15,NW,307,0.0,0.0,83,0.00,,---,0.00,VWS V14.01,2013-04-06 09:59:00,
2013-04-06 06:04:00,29.5,25.0,30.15,NW,307,0.0,0.0,83,0.00,,---,0.00,VWS V14.01,2013-04-06 10:04:00,
2013-04-06 06:09:00,29.2,25.3,30.15,NW,307,0.0,0.0,85,0.00,,---,0.00,VWS V14.01,2013-04-06 10:09:00,
2013-04-06 06:14:00,28.8,25.1,30.16,NW,307,0.0,0.0,86,0.00,,---,0.00,VWS V14.01,2013-04-06 10:14:00,
2013-04-06 06:19:00,28.6,25.2,30.16,NW,306,0.0,0.0,87,0.00,,---,0.00,VWS V14.01,2013-04-06 10:19:00,
2013-04-06 06:24:00,28.9,25.0,30.16,NW,307,0.0,0.0,85,0.00,,---,0.00,VWS V14.01,2013-04-06 10:24:00,
2013-04-06 06:29:00,28.9,25.2,30.17,NW,307,0.0,0.0,86,0.00,,---,0.00,VWS V14.01,2013-04-06 10:29:00,
2013-04-06 06:34:00,28.5,25.1,30.17,NW,306,0.0,0.0,87,0.00,,---,0.00,VWS V14.01,2013-04-06 10:34:00,
2013-04-06 06:40:00,28.2,25.1,30.17,NW,307,0.0,0.0,88,0.00,,---,0.00,VWS V14.01,2013-04-06 10:40:00,
2013-04-06 06:45:00,28.1,25.3,30.18,NW,307,0.0,0.0,89,0.00,,---,0.00,VWS V14.01,2013-04-06 10:45:00,
2013-04-06 06:50:00,28.0,25.5,30.18,NW,307,0.0,1.0,90,0.00,,---,0.00,VWS V14.01,2013-04-06 10:50:00,
2013-04-06 06:55:00,28.1,25.8,30.19,NW,307,0.0,1.0,91,0.00,,---,0.00,VWS V14.01,2013-04-06 10:55:00,
2013-04-06 07:00:00,28.1,25.8,30.19,NW,307,0.0,0.0,91,0.00,,---,0.00,VWS V14.01,2013-04-06 11:00:00,
2013-04-06 07:05:00,28.3,26.0,30.19,NW,307,0.0,0.0,91,0.00,,---,0.00,VWS V14.01,2013-04-06 11:05:00,
2013-04-06 07:10:00,28.4,25.9,30.19,NW,307,0.0,0.0,90,0.00,,---,0.00,VWS V14.01,2013-04-06 11:10:00,
2013-04-06 07:15:00,28.5,26.2,30.19,NW,306,0.0,0.0,91,0.00,,---,0.00,VWS V14.01,2013-04-06 11:15:00,
2013-04-06 07:20:00,28.7,26.1,30.20,NW,306,0.0,0.0,90,0.00,,---,0.00,VWS V14.01,2013-04-06 11:20:00,
2013-04-06 07:25:00,29.0,26.4,30.20,NW,307,0.0,0.0,90,0.00,,---,0.00,VWS V14.01,2013-04-06 11:25:00,
2013-04-06 07:30:00,28.9,26.1,30.20,NW,306,0.0,0.0,89,0.00,,---,0.00,VWS V14.01,2013-04-06 11:30:00,
2013-04-06 07:33:00,28.9,26.1,30.20,NW,307,0.0,0.0,89,0.00,,---,0.00,VWS V14.01,2013-04-06 11:33:00,
2013-04-06 07:38:00,29.0,26.4,30.21,NW,307,0.0,1.0,90,0.00,,---,0.00,VWS V14.01,2013-04-06 11:38:00,
2013-04-06 07:43:00,29.3,26.7,30.21,South,188,0.0,1.0,90,0.00,,---,0.00,VWS V14.01,2013-04-06 11:43:00,
2013-04-06 07:48:00,29.6,26.8,30.21,South,190,0.0,1.0,89,0.00,,---,0.00,VWS V14.01,2013-04-06 11:48:00,
2013-04-06 07:53:00,30.2,27.4,30.21,South,188,0.0,1.0,89,0.00,,---,0.00,VWS V14.01,2013-04-06 11:53:00,
2013-04-06 07:58:00,31.2,27.8,30.22,ESE,116,0.0,1.0,87,0.00,,---,0.00,VWS V14.01,2013-04-06 11:58:00,
2013-04-06 08:03:00,32.2,27.9,30.22,ESE,113,0.0,1.0,84,0.00,,---,0.00,VWS V14.01,2013-04-06 12:03:00,
2013-04-06 08:08:00,33.1,28.2,30.22,ESE,113,0.0,1.0,82,0.00,,---,0.00,VWS V14.01,2013-04-06 12:08:00,
2013-04-06 08:13:00,34.1,28.9,30.22,ESE,113,0.0,1.0,81,0.00,,---,0.00,VWS V14.01,2013-04-06 12:13:00,
2013-04-06 08:18:00,35.0,28.9,30.23,ESE,113,0.0,1.0,78,0.00,,---,0.00,VWS V14.01,2013-04-06 12:18:00,
2013-04-06 08:23:00,36.0,29.8,30.22,ESE,113,0.0,1.0,78,0.00,,---,0.00,VWS V14.01,2013-04-06 12:23:00,
2013-04-06 08:28:00,37.9,31.4,30.22,ESE,113,0.0,1.0,77,0.00,,---,0.00,VWS V14.01,2013-04-06 12:28:00,
2013-04-06 08:33:00,38.5,29.2,30.22,ESE,113,1.0,1.0,69,0.00,,---,0.00,VWS V14.01,2013-04-06 12:33:00,
2013-04-06 08:38:00,38.5,28.9,30.23,ESE,115,1.0,1.0,68,0.00,,---,0.00,VWS V14.01,2013-04-06 12:38:00,
2013-04-06 08:43:00,38.8,29.5,30.22,ESE,113,1.0,2.0,69,0.00,,---,0.00,VWS V14.01,2013-04-06 12:43:00,
2013-04-06 08:48:00,39.2,29.9,30.22,ESE,105,2.0,3.0,69,0.00,,---,0.00,VWS V14.01,2013-04-06 12:48:00,
2013-04-06 08:53:00,40.0,29.2,30.23,ESE,108,2.0,4.0,65,0.00,,---,0.00,VWS V14.01,2013-04-06 12:53:00,
2013-04-06 08:59:00,40.8,29.6,30.23,East,101,1.0,6.0,64,0.00,,---,0.00,VWS V14.01,2013-04-06 12:59:00,
2013-04-06 09:04:00,41.4,28.6,30.23,East,96,4.0,7.0,60,0.00,,---,0.00,VWS V14.01,2013-04-06 13:04:00,
2013-04-06 09:09:00,41.8,28.1,30.23,ESE,103,8.0,9.0,58,0.00,,---,0.00,VWS V14.01,2013-04-06 13:09:00,
2013-04-06 09:14:00,42.0,28.3,30.23,ESE,122,7.0,9.0,58,0.00,,---,0.00,VWS V14.01,2013-04-06 13:14:00,
2013-04-06 09:19:00,42.3,28.6,30.23,ESE,117,7.0,9.0,58,0.00,,---,0.00,VWS V14.01,2013-04-06 13:19:00,
2013-04-06 09:24:00,42.5,27.9,30.23,ESE,103,6.0,10.0,56,0.00,,---,0.00,VWS V14.01,2013-04-06 13:24:00,
2013-04-06 09:29:00,42.9,28.7,30.22,East,88,6.0,10.0,57,0.00,,---,0.00,VWS V14.01,2013-04-06 13:29:00,
2013-04-06 09:34:00,43.2,28.6,30.22,ESE,122,2.0,8.0,56,0.00,,---,0.00,VWS V14.01,2013-04-06 13:34:00,
2013-04-06 09:39:00,43.7,28.2,30.22,ESE,113,7.0,8.0,54,0.00,,---,0.00,VWS V14.01,2013-04-06 13:39:00,
2013-04-06 09:44:00,44.0,28.9,30.22,East,81,7.0,8.0,55,0.00,,---,0.00,VWS V14.01,2013-04-06 13:44:00,
2013-04-06 09:49:00,44.2,29.1,30.22,SE,124,3.0,8.0,55,0.00,,---,0.00,VWS V14.01,2013-04-06 13:49:00,
2013-04-06 09:54:00,44.5,28.9,30.22,ENE,72,5.0,8.0,54,0.00,,---,0.00,VWS V14.01,2013-04-06 13:54:00,
2013-04-06 10:00:00,44.9,28.8,30.23,East,91,4.0,8.0,53,0.00,,---,0.00,VWS V14.01,2013-04-06 14:00:00,
2013-04-06 10:04:00,45.2,29.6,30.23,SE,127,5.0,7.0,54,0.00,,---,0.00,VWS V14.01,2013-04-06 14:04:00,
2013-04-06 10:10:00,45.8,29.7,30.23,ESE,109,4.0,10.0,53,0.00,,---,0.00,VWS V14.01,2013-04-06 14:10:00,
2013-04-06 10:15:00,46.0,28.9,30.23,SE,131,4.0,10.0,51,0.00,,---,0.00,VWS V14.01,2013-04-06 14:15:00,
2013-04-06 10:20:00,46.7,28.6,30.23,SSE,160,3.0,10.0,49,0.00,,---,0.00,VWS V14.01,2013-04-06 14:20:00,
2013-04-06 10:25:00,47.5,29.8,30.23,ESE,103,4.0,10.0,50,0.00,,---,0.00,VWS V14.01,2013-04-06 14:25:00,
2013-04-06 10:30:00,47.8,29.6,30.23,SSE,158,3.0,5.0,49,0.00,,---,0.00,VWS V14.01,2013-04-06 14:30:00,
2013-04-06 10:35:00,48.1,27.8,30.23,ESE,105,3.0,9.0,45,0.00,,---,0.00,VWS V14.01,2013-04-06 14:35:00,
2013-04-06 10:40:00,48.1,28.8,30.23,East,99,3.0,9.0,47,0.00,,---,0.00,VWS V14.01,2013-04-06 14:40:00,
2013-04-06 10:45:00,48.4,29.1,30.23,SE,128,3.0,9.0,47,0.00,,---,0.00,VWS V14.01,2013-04-06 14:45:00,
2013-04-06 10:50:00,48.7,29.4,30.23,ESE,117,4.0,9.0,47,0.00,,---,0.00,VWS V14.01,2013-04-06 14:50:00,
2013-04-06 10:55:00,48.1,28.3,30.23,East,100,9.0,14.0,46,0.00,,---,0.00,VWS V14.01,2013-04-06 14:55:00,
2013-04-06 11:00:00,47.8,28.0,30.23,NE,48,8.0,12.0,46,0.00,,---,0.00,VWS V14.01,2013-04-06 15:00:00,
2013-04-06 11:05:00,47.7,28.5,30.23,SE,132,9.0,12.0,47,0.00,,---,0.00,VWS V14.01,2013-04-06 15:05:00,
2013-04-06 11:10:00,47.7,28.5,30.23,ESE,105,9.0,12.0,47,0.00,,---,0.00,VWS V14.01,2013-04-06 15:10:00,
2013-04-06 11:15:00,47.9,27.0,30.23,East,90,13.0,13.0,44,0.00,,---,0.00,VWS V14.01,2013-04-06 15:15:00,
2013-04-06 11:20:00,48.6,28.8,30.23,East,82,7.0,13.0,46,0.00,,---,0.00,VWS V14.01,2013-04-06 15:20:00,
2013-04-06 11:25:00,49.2,28.2,30.23,ESE,118,5.0,13.0,44,0.00,,---,0.00,VWS V14.01,2013-04-06 15:25:00,
2013-04-06 11:30:00,49.1,26.4,30.23,ESE,113,4.0,4.0,41,0.00,,---,0.00,VWS V14.01,2013-04-06 15:30:00,
2013-04-06 11:35:00,49.2,27.1,30.23,ESE,110,4.0,11.0,42,0.00,,---,0.00,VWS V14.01,2013-04-06 15:35:00,
2013-04-06 11:40:00,49.9,27.1,30.23,South,170,4.0,11.0,41,0.00,,---,0.00,VWS V14.01,2013-04-06 15:40:00,
2013-04-06 11:45:00,50.9,26.2,30.23,ENE,78,2.0,11.0,38,0.00,,---,0.00,VWS V14.01,2013-04-06 15:45:00,
2013-04-06 11:50:00,51.4,25.4,30.23,SE,138,9.0,11.0,36,0.00,,---,0.00,VWS V14.01,2013-04-06 15:50:00,
2013-04-06 11:55:00,51.2,24.5,30.22,NE,36,5.0,11.0,35,0.00,,---,0.00,VWS V14.01,2013-04-06 15:55:00,
2013-04-06 12:00:00,51.2,19.2,30.22,ENE,70,6.0,12.0,28,0.00,,---,0.00,VWS V14.01,2013-04-06 16:00:00,
2013-04-06 12:05:00,51.6,22.7,30.22,East,94,7.0,13.0,32,0.00,,---,0.00,VWS V14.01,2013-04-06 16:05:00,
2013-04-06 12:11:00,52.0,23.8,30.21,ENE,74,7.0,13.0,33,0.00,,---,0.00,VWS V14.01,2013-04-06 16:11:00,
2013-04-06 12:16:00,52.4,19.4,30.22,SE,135,5.0,13.0,27,0.00,,---,0.00,VWS V14.01,2013-04-06 16:16:00,
2013-04-06 12:21:00,52.9,23.1,30.21,ENE,58,2.0,13.0,31,0.00,,---,0.00,VWS V14.01,2013-04-06 16:21:00,
2013-04-06 12:26:00,53.2,21.0,30.21,East,98,6.0,13.0,28,0.00,,---,0.00,VWS V14.01,2013-04-06 16:26:00,
2013-04-06 12:31:00,53.2,21.0,30.21,SE,138,5.0,7.0,28,0.00,,---,0.00,VWS V14.01,2013-04-06 16:31:00,
2013-04-06 12:36:00,53.5,25.1,30.21,ENE,70,5.0,12.0,33,0.00,,---,0.00,VWS V14.01,2013-04-06 16:36:00,
2013-04-06 12:41:00,53.4,20.3,30.21,SE,136,6.0,12.0,27,0.00,,---,0.00,VWS V14.01,2013-04-06 16:41:00,
2013-04-06 12:46:00,54.0,22.5,30.21,SE,132,0.0,12.0,29,0.00,,---,0.00,VWS V14.01,2013-04-06 16:46:00,
2013-04-06 12:51:00,54.2,21.0,30.20,ESE,106,3.0,12.0,27,0.00,,---,0.00,VWS V14.01,2013-04-06 16:51:00,
2013-04-06 12:57:00,54.9,24.9,30.20,East,85,5.0,12.0,31,0.00,,---,0.00,VWS V14.01,2013-04-06 16:57:00,
2013-04-06 13:02:00,55.5,25.4,30.20,SE,132,6.0,6.0,31,0.00,,---,0.00,VWS V14.01,2013-04-06 17:02:00,
2013-04-06 13:07:00,55.8,25.6,30.20,NE,53,5.0,12.0,31,0.00,,---,0.00,VWS V14.01,2013-04-06 17:07:00,
2013-04-06 13:12:00,55.9,23.3,30.20,SE,146,1.0,12.0,28,0.00,,---,0.00,VWS V14.01,2013-04-06 17:12:00,
2013-04-06 13:17:00,56.2,24.4,30.20,SE,131,6.0,12.0,29,0.00,,---,0.00,VWS V14.01,2013-04-06 17:17:00,
2013-04-06 13:22:00,56.3,26.8,30.20,SE,132,6.0,12.0,32,0.00,,---,0.00,VWS V14.01,2013-04-06 17:22:00,
2013-04-06 13:27:00,56.5,27.0,30.19,SW,223,5.0,12.0,32,0.00,,---,0.00,VWS V14.01,2013-04-06 17:27:00,
2013-04-06 13:32:00,57.0,26.7,30.19,SSE,160,2.0,5.0,31,0.00,,---,0.00,VWS V14.01,2013-04-06 17:32:00,
2013-04-06 13:37:00,57.2,28.4,30.19,ESE,108,4.0,7.0,33,0.00,,---,0.00,VWS V14.01,2013-04-06 17:37:00,
2013-04-06 13:42:00,57.6,29.5,30.19,ESE,116,4.0,8.0,34,0.00,,---,0.00,VWS V14.01,2013-04-06 17:42:00,
2013-04-06 13:47:00,57.5,26.3,30.19,East,100,4.0,10.0,30,0.00,,---,0.00,VWS V14.01,2013-04-06 17:47:00,
2013-04-06 13:52:00,57.8,28.9,30.18,NW,304,2.0,10.0,33,0.00,,---,0.00,VWS V14.01,2013-04-06 17:52:00,
2013-04-06 13:57:00,58.7,31.1,30.18,South,179,2.0,10.0,35,0.00,,---,0.00,VWS V14.01,2013-04-06 17:57:00,
2013-04-06 14:02:00,59.4,28.8,30.18,SSW,199,4.0,4.0,31,0.00,,---,0.00,VWS V14.01,2013-04-06 18:02:00,
2013-04-06 14:07:00,59.0,27.6,30.18,SE,129,6.0,10.0,30,0.00,,---,0.00,VWS V14.01,2013-04-06 18:07:00,
2013-04-06 14:12:00,58.8,29.8,30.18,SE,139,7.0,11.0,33,0.00,,---,0.00,VWS V14.01,2013-04-06 18:12:00,
2013-04-06 14:17:00,58.1,29.9,30.17,NE,49,3.0,11.0,34,0.00,,---,0.00,VWS V14.01,2013-04-06 18:17:00,
2013-04-06 14:23:00,58.6,31.0,30.17,SE,132,6.0,11.0,35,0.00,,---,0.00,VWS V14.01,2013-04-06 18:23:00,
2013-04-06 14:28:00,59.0,30.7,30.17,East,80,10.0,12.0,34,0.00,,---,0.00,VWS V14.01,2013-04-06 18:28:00,
2013-04-06 14:33:00,59.0,30.7,30.17,SSE,147,4.0,12.0,34,0.00,,---,0.00,VWS V14.01,2013-04-06 18:33:00,
2013-04-06 14:38:00,59.1,30.8,30.17,North,356,7.0,12.0,34,0.00,,---,0.00,VWS V14.01,2013-04-06 18:38:00,
2013-04-06 14:43:00,59.2,30.1,30.16,ESE,107,7.0,13.0,33,0.00,,---,0.00,VWS V14.01,2013-04-06 18:43:00,
2013-04-06 14:48:00,59.0,30.0,30.16,East,98,7.0,14.0,33,0.00,,---,0.00,VWS V14.01,2013-04-06 18:48:00,
2013-04-06 14:53:00,59.0,30.7,30.16,ESE,113,3.0,14.0,34,0.00,,---,0.00,VWS V14.01,2013-04-06 18:53:00,
2013-04-06 14:58:00,59.1,30.0,30.16,East,88,7.0,14.0,33,0.00,,---,0.00,VWS V14.01,2013-04-06 18:58:00,
2013-04-06 15:03:00,59.8,30.7,30.15,SE,134,4.0,11.0,33,0.00,,---,0.00,VWS V14.01,2013-04-06 19:03:00,
2013-04-06 15:08:00,60.2,30.2,30.15,SE,133,11.0,12.0,32,0.00,,---,0.00,VWS V14.01,2013-04-06 19:08:00,
2013-04-06 15:13:00,60.1,31.7,30.15,SE,135,7.0,16.0,34,0.00,,---,0.00,VWS V14.01,2013-04-06 19:13:00,
2013-04-06 15:18:00,59.9,29.2,30.15,ENE,66,4.0,16.0,31,0.00,,---,0.00,VWS V14.01,2013-04-06 19:18:00,
2013-04-06 15:23:00,59.7,28.2,30.14,ENE,61,2.0,16.0,30,0.00,,---,0.00,VWS V14.01,2013-04-06 19:23:00,
2013-04-06 15:28:00,59.8,29.1,30.14,ESE,110,12.0,16.0,31,0.00,,---,0.00,VWS V14.01,2013-04-06 19:28:00,
2013-04-06 15:33:00,60.4,28.0,30.14,SSW,213,11.0,11.0,29,0.00,,---,0.00,VWS V14.01,2013-04-06 19:33:00,
2013-04-06 15:38:00,60.4,28.9,30.14,ENE,66,5.0,12.0,30,0.00,,---,0.00,VWS V14.01,2013-04-06 19:38:00,
2013-04-06 15:43:00,60.2,27.9,30.13,SE,139,6.0,16.0,29,0.00,,---,0.00,VWS V14.01,2013-04-06 19:43:00,
2013-04-06 15:48:00,60.5,30.5,30.13,ESE,114,8.0,16.0,32,0.00,,---,0.00,VWS V14.01,2013-04-06 19:48:00,
2013-04-06 15:53:00,60.5,28.1,30.13,SSW,210,6.0,16.0,29,0.00,,---,0.00,VWS V14.01,2013-04-06 19:53:00,
2013-04-06 15:59:00,60.4,29.6,30.12,ESE,120,4.0,16.0,31,0.00,,---,0.00,VWS V14.01,2013-04-06 19:59:00,
2013-04-06 16:04:00,60.3,31.1,30.12,ENE,77,6.0,11.0,33,0.00,,---,0.00,VWS V14.01,2013-04-06 20:04:00,
2013-04-06 16:09:00,60.4,30.4,30.12,ESE,103,4.0,11.0,32,0.00,,---,0.00,VWS V14.01,2013-04-06 20:09:00,
2013-04-06 16:14:00,61.1,30.3,30.12,ESE,114,7.0,11.0,31,0.00,,---,0.00,VWS V14.01,2013-04-06 20:14:00,
2013-04-06 16:19:00,61.1,30.3,30.12,ESE,113,6.0,12.0,31,0.00,,---,0.00,VWS V14.01,2013-04-06 20:19:00,
2013-04-06 16:24:00,60.8,29.2,30.12,SE,139,8.0,13.0,30,0.00,,---,0.00,VWS V14.01,2013-04-06 20:24:00,
2013-04-06 16:29:00,60.5,29.7,30.12,ESE,110,4.0,13.0,31,0.00,,---,0.00,VWS V14.01,2013-04-06 20:29:00,
2013-04-06 16:34:00,60.7,29.9,30.12,SE,139,4.0,12.0,31,0.00,,---,0.00,VWS V14.01,2013-04-06 20:34:00,
2013-04-06 16:39:00,60.7,29.1,30.11,SSE,160,3.0,12.0,30,0.00,,---,0.00,VWS V14.01,2013-04-06 20:39:00,
2013-04-06 16:44:00,61.3,27.9,30.11,SE,132,5.0,12.0,28,0.00,,---,0.00,VWS V14.01,2013-04-06 20:44:00,
2013-04-06 16:50:00,61.3,29.6,30.11,ENE,68,2.0,12.0,30,0.00,,---,0.00,VWS V14.01,2013-04-06 20:50:00,
2013-04-06 16:55:00,61.7,32.3,30.11,SSE,158,5.0,12.0,33,0.00,,---,0.00,VWS V14.01,2013-04-06 20:55:00,
2013-04-06 17:00:00,61.3,32.7,30.11,SE,129,7.0,8.0,34,0.00,,---,0.00,VWS V14.01,2013-04-06 21:00:00,
2013-04-06 17:05:00,61.0,33.9,30.11,ESE,119,4.0,11.0,36,0.00,,---,0.00,VWS V14.01,2013-04-06 21:05:00,
2013-04-06 17:10:00,61.0,33.2,30.11,East,98,4.0,13.0,35,0.00,,---,0.00,VWS V14.01,2013-04-06 21:10:00,
2013-04-06 17:15:00,61.3,34.1,30.11,SE,124,3.0,13.0,36,0.00,,---,0.00,VWS V14.01,2013-04-06 21:15:00,
2013-04-06 17:20:00,61.4,31.3,30.11,ESE,119,8.0,13.0,32,0.00,,---,0.00,VWS V14.01,2013-04-06 21:20:00,
2013-04-06 17:25:00,61.1,31.0,30.11,ESE,110,9.0,13.0,32,0.00,,---,0.00,VWS V14.01,2013-04-06 21:25:00,
2013-04-06 17:31:00,61.1,31.8,30.11,ENE,72,4.0,11.0,33,0.00,,---,0.00,VWS V14.01,2013-04-06 21:31:00,
2013-04-06 17:36:00,60.7,30.7,30.11,ESE,121,5.0,16.0,32,0.00,,---,0.00,VWS V14.01,2013-04-06 21:36:00,
2013-04-06 17:41:00,60.6,32.1,30.11,ESE,114,9.0,16.0,34,0.00,,---,0.00,VWS V14.01,2013-04-06 21:41:00,
2013-04-06 17:46:00,60.5,30.5,30.11,East,90,8.0,16.0,32,0.00,,---,0.00,VWS V14.01,2013-04-06 21:46:00,
2013-04-06 17:51:00,60.2,31.8,30.11,SE,129,4.0,16.0,34,0.00,,---,0.00,VWS V14.01,2013-04-06 21:51:00,
2013-04-06 17:56:00,60.1,31.7,30.11,ESE,106,11.0,16.0,34,0.00,,---,0.00,VWS V14.01,2013-04-06 21:56:00,
2013-04-06 18:01:00,60.1,33.1,30.11,ESE,116,6.0,9.0,36,0.00,,---,0.00,VWS V14.01,2013-04-06 22:01:00,
2013-04-06 18:06:00,59.9,32.2,30.11,SE,130,4.0,12.0,35,0.00,,---,0.00,VWS V14.01,2013-04-06 22:06:00,
2013-04-06 18:11:00,59.8,31.4,30.11,NE,46,5.0,12.0,34,0.00,,---,0.00,VWS V14.01,2013-04-06 22:11:00,
2013-04-06 18:16:00,59.7,31.3,30.11,ESE,110,10.0,15.0,34,0.00,,---,0.00,VWS V14.01,2013-04-06 22:16:00,
2013-04-06 18:21:00,59.6,32.6,30.11,SE,127,4.0,15.0,36,0.00,,---,0.00,VWS V14.01,2013-04-06 22:21:00,
2013-04-06 18:26:00,59.6,32.6,30.11,ENE,67,6.0,15.0,36,0.00,,---,0.00,VWS V14.01,2013-04-06 22:26:00,
2013-04-06 18:31:00,59.4,31.8,30.11,SSE,155,9.0,12.0,35,0.00,,---,0.00,VWS V14.01,2013-04-06 22:31:00,
2013-04-06 18:36:00,59.2,31.6,30.11,East,96,6.0,13.0,35,0.00,,---,0.00,VWS V14.01,2013-04-06 22:36:00,
2013-04-06 18:42:00,59.0,31.4,30.11,ESE,105,6.0,13.0,35,0.00,,---,0.00,VWS V14.01,2013-04-06 22:42:00,
2013-04-06 18:47:00,58.8,31.9,30.11,SE,132,9.0,13.0,36,0.00,,---,0.00,VWS V14.01,2013-04-06 22:47:00,
2013-04-06 18:52:00,58.6,33.1,30.11,SE,124,8.0,13.0,38,0.00,,---,0.00,VWS V14.01,2013-04-06 22:52:00,
2013-04-06 18:57:00,58.5,33.0,30.11,ENE,67,7.0,15.0,38,0.00,,---,0.00,VWS V14.01,2013-04-06 22:57:00,
2013-04-06 19:02:00,58.3,32.8,30.11,SE,130,10.0,10.0,38,0.00,,---,0.00,VWS V14.01,2013-04-06 23:02:00,
2013-04-06 19:07:00,58.1,32.7,30.11,SE,126,6.0,14.0,38,0.00,,---,0.00,VWS V14.01,2013-04-06 23:07:00,
2013-04-06 19:12:00,57.8,33.7,30.11,SE,131,7.0,14.0,40,0.00,,---,0.00,VWS V14.01,2013-04-06 23:12:00,
2013-04-06 19:17:00,57.5,34.0,30.11,SE,136,5.0,14.0,41,0.00,,---,0.00,VWS V14.01,2013-04-06 23:17:00,
2013-04-06 19:22:00,57.3,33.2,30.11,ESE,107,9.0,15.0,40,0.00,,---,0.00,VWS V14.01,2013-04-06 23:22:00,
2013-04-06 19:27:00,57.1,33.6,30.11,ESE,115,9.0,15.0,41,0.00,,---,0.00,VWS V14.01,2013-04-06 23:27:00,
2013-04-06 19:32:00,57.0,33.5,30.11,SE,124,6.0,13.0,41,0.00,,---,0.00,VWS V14.01,2013-04-06 23:32:00,
2013-04-06 19:37:00,56.7,33.9,30.11,SE,124,9.0,14.0,42,0.00,,---,0.00,VWS V14.01,2013-04-06 23:37:00,
2013-04-06 19:42:00,56.6,33.8,30.11,SE,128,5.0,14.0,42,0.00,,---,0.00,VWS V14.01,2013-04-06 23:42:00,
2013-04-06 19:47:00,56.4,33.6,30.11,ENE,76,6.0,14.0,42,0.00,,---,0.00,VWS V14.01,2013-04-06 23:47:00,
2013-04-06 19:52:00,56.1,34.5,30.11,SE,139,6.0,14.0,44,0.00,,---,0.00,VWS V14.01,2013-04-06 23:52:00,
2013-04-06 19:57:00,56.1,33.9,30.11,ESE,117,6.0,15.0,43,0.00,,---,0.00,VWS V14.01,2013-04-06 23:57:00,
2013-04-06 20:02:00,56.0,33.8,30.11,ENE,65,5.0,11.0,43,0.00,,---,0.00,VWS V14.01,2013-04-07 00:02:00,
2013-04-06 20:07:00,55.6,34.0,30.11,SE,125,7.0,11.0,44,0.00,,---,0.00,VWS V14.01,2013-04-07 00:07:00,
2013-04-06 20:13:00,55.3,33.8,30.11,NNE,26,6.0,11.0,44,0.00,,---,0.00,VWS V14.01,2013-04-07 00:13:00,
2013-04-06 20:18:00,55.1,33.6,30.11,ENE,62,5.0,12.0,44,0.00,,---,0.00,VWS V14.01,2013-04-07 00:18:00,
2013-04-06 20:23:00,54.8,33.9,30.12,SE,128,4.0,12.0,45,0.00,,---,0.00,VWS V14.01,2013-04-07 00:23:00,
2013-04-06 20:28:00,54.6,34.2,30.12,ESE,122,6.0,12.0,46,0.00,,---,0.00,VWS V14.01,2013-04-07 00:28:00,
2013-04-06 20:33:00,54.7,34.3,30.12,East,85,8.0,12.0,46,0.00,,---,0.00,VWS V14.01,2013-04-07 00:33:00,
2013-04-06 20:39:00,54.6,34.2,30.11,ESE,106,13.0,15.0,46,0.00,,---,0.00,VWS V14.01,2013-04-07 00:39:00,
2013-04-06 20:44:00,54.4,34.1,30.12,East,101,10.0,15.0,46,0.00,,---,0.00,VWS V14.01,2013-04-07 00:44:00,
2013-04-06 20:49:00,54.3,34.0,30.12,SE,134,6.0,19.0,46,0.00,,---,0.00,VWS V14.01,2013-04-07 00:49:00,
2013-04-06 20:54:00,54.2,33.9,30.12,SE,132,8.0,19.0,46,0.00,,---,0.00,VWS V14.01,2013-04-07 00:54:00,
2013-04-06 20:59:00,54.1,33.8,30.12,ESE,118,9.0,19.0,46,0.00,,---,0.00,VWS V14.01,2013-04-07 00:59:00,
2013-04-06 21:04:00,53.9,33.6,30.12,SE,131,7.0,17.0,46,0.00,,---,0.00,VWS V14.01,2013-04-07 01:04:00,
2013-04-06 21:09:00,53.7,34.0,30.12,ESE,105,4.0,17.0,47,0.00,,---,0.00,VWS V14.01,2013-04-07 01:09:00,
2013-04-06 21:14:00,53.4,33.7,30.13,SE,128,10.0,17.0,47,0.00,,---,0.00,VWS V14.01,2013-04-07 01:14:00,
2013-04-06 21:19:00,53.3,33.6,30.13,ENE,71,4.0,17.0,47,0.00,,---,0.00,VWS V14.01,2013-04-07 01:19:00,
2013-04-06 21:24:00,53.1,33.4,30.13,ESE,120,10.0,17.0,47,0.00,,---,0.00,VWS V14.01,2013-04-07 01:24:00,
2013-04-06 21:30:00,52.9,33.2,30.13,ESE,120,10.0,17.0,47,0.00,,---,0.00,VWS V14.01,2013-04-07 01:30:00,
2013-04-06 21:35:00,52.7,33.6,30.13,SE,129,10.0,14.0,48,0.00,,---,0.00,VWS V14.01,2013-04-07 01:35:00,
2013-04-06 21:40:00,52.6,33.5,30.13,ESE,115,7.0,16.0,48,0.00,,---,0.00,VWS V14.01,2013-04-07 01:40:00,
2013-04-06 21:45:00,52.4,33.3,30.13,SE,126,11.0,16.0,48,0.00,,---,0.00,VWS V14.01,2013-04-07 01:45:00,
2013-04-06 21:50:00,52.4,33.3,30.12,ESE,122,10.0,16.0,48,0.00,,---,0.00,VWS V14.01,2013-04-07 01:50:00,
2013-04-06 21:55:00,52.3,33.7,30.13,ESE,113,10.0,16.0,49,0.00,,---,0.00,VWS V14.01,2013-04-07 01:55:00,
2013-04-06 22:00:00,52.1,33.5,30.13,ESE,122,11.0,13.0,49,0.00,,---,0.00,VWS V14.01,2013-04-07 02:00:00,
2013-04-06 22:05:00,52.0,33.5,30.13,ESE,122,7.0,14.0,49,0.00,,---,0.00,VWS V14.01,2013-04-07 02:05:00,
2013-04-06 22:10:00,51.9,33.4,30.12,ESE,122,11.0,20.0,49,0.00,,---,0.00,VWS V14.01,2013-04-07 02:10:00,
2013-04-06 22:15:00,51.9,33.4,30.12,ESE,114,13.0,20.0,49,0.00,,---,0.00,VWS V14.01,2013-04-07 02:15:00,
2013-04-06 22:20:00,51.8,33.3,30.12,ESE,120,12.0,20.0,49,0.00,,---,0.00,VWS V14.01,2013-04-07 02:20:00,
2013-04-06 22:25:00,51.8,33.3,30.12,East,89,15.0,20.0,49,0.00,,---,0.00,VWS V14.01,2013-04-07 02:25:00,
2013-04-06 22:30:00,51.7,33.2,30.12,ESE,113,8.0,12.0,49,0.00,,---,0.00,VWS V14.01,2013-04-07 02:30:00,
2013-04-06 22:35:00,51.5,33.0,30.12,ESE,108,12.0,16.0,49,0.00,,---,0.00,VWS V14.01,2013-04-07 02:35:00,
2013-04-06 22:40:00,51.3,33.3,30.12,ESE,114,10.0,16.0,50,0.00,,---,0.00,VWS V14.01,2013-04-07 02:40:00,
2013-04-06 22:45:00,51.2,33.2,30.12,East,101,11.0,16.0,50,0.00,,---,0.00,VWS V14.01,2013-04-07 02:45:00,
2013-04-06 22:50:00,51.2,33.2,30.12,ESE,116,6.0,17.0,50,0.00,,---,0.00,VWS V14.01,2013-04-07 02:50:00,
2013-04-06 22:55:00,51.0,33.0,30.12,East,96,12.0,17.0,50,0.00,,---,0.00,VWS V14.01,2013-04-07 02:55:00,
2013-04-06 23:00:00,50.8,33.3,30.12,SE,129,10.0,12.0,51,0.00,,---,0.00,VWS V14.01,2013-04-07 03:00:00,
2013-04-06 23:05:00,50.8,33.3,30.12,SE,129,8.0,16.0,51,0.00,,---,0.00,VWS V14.01,2013-04-07 03:05:00,
2013-04-06 23:10:00,50.7,33.2,30.12,ESE,104,11.0,16.0,51,0.00,,---,0.00,VWS V14.01,2013-04-07 03:10:00,
2013-04-06 23:15:00,50.7,33.2,30.12,ESE,110,6.0,16.0,51,0.00,,---,0.00,VWS V14.01,2013-04-07 03:15:00,
2013-04-06 23:21:00,50.4,33.0,30.12,SE,142,9.0,16.0,51,0.00,,---,0.00,VWS V14.01,2013-04-07 03:21:00,
2013-04-06 23:26:00,50.4,33.5,30.12,SE,130,9.0,17.0,52,0.00,,---,0.00,VWS V14.01,2013-04-07 03:26:00,
2013-04-06 23:31:00,50.3,33.4,30.12,SE,131,9.0,13.0,52,0.00,,---,0.00,VWS V14.01,2013-04-07 03:31:00,
2013-04-06 23:36:00,50.3,33.4,30.12,ESE,122,10.0,15.0,52,0.00,,---,0.00,VWS V14.01,2013-04-07 03:36:00,
2013-04-06 23:41:00,50.3,33.4,30.12,ESE,122,6.0,17.0,52,0.00,,---,0.00,VWS V14.01,2013-04-07 03:41:00,
2013-04-06 23:46:00,50.3,33.4,30.11,ESE,120,12.0,17.0,52,0.00,,---,0.00,VWS V14.01,2013-04-07 03:46:00,
2013-04-06 23:51:00,50.2,33.3,30.11,SE,126,12.0,17.0,52,0.00,,---,0.00,VWS V14.01,2013-04-07 03:51:00,
2013-04-06 23:56:00,50.2,33.3,30.11,ENE,74,14.0,19.0,52,0.00,,---,0.00,VWS V14.01,2013-04-07 03:56:00,